createdAt,value
2022-10-14T00:01:06.461Z,1.00
2022-10-14T00:06:15.443Z,1.00
2022-10-14T00:11:20.964Z,0.80
2022-10-14T00:16:26.488Z,1.20
2022-10-14T00:21:31.830Z,1.00
2022-10-14T00:26:37.031Z,2.57
2022-10-14T00:31:40.629Z,1.10
2022-10-14T00:36:45.600Z,1.10
2022-10-14T00:41:55.298Z,1.13
2022-10-14T00:46:59.094Z,2.07
2022-10-14T00:52:07.089Z,1.30
2022-10-14T00:57:12.652Z,1.17
2022-10-14T01:02:16.182Z,1.00
2022-10-14T01:07:32.642Z,0.80
2022-10-14T01:12:42.970Z,0.73
2022-10-14T01:17:57.899Z,0.50
2022-10-14T01:23:20.508Z,0.97
2022-10-14T01:28:32.628Z,0.70
2022-10-14T01:33:41.072Z,0.73
2022-10-14T01:38:48.993Z,0.63
2022-10-14T01:43:55.547Z,0.77
2022-10-14T01:49:05.332Z,1.10
2022-10-14T01:54:13.737Z,0.80
2022-10-14T01:59:19.797Z,0.97
2022-10-14T02:04:25.216Z,0.50
2022-10-14T02:09:38.856Z,0.70
2022-10-14T02:14:49.706Z,0.60
2022-10-14T02:20:02.579Z,1.10
2022-10-14T02:25:11.607Z,1.43
2022-10-14T02:30:16.735Z,0.70
2022-10-14T02:35:25.732Z,0.67
2022-10-14T02:40:36.782Z,1.10
2022-10-14T02:45:41.946Z,1.40
2022-10-14T02:50:46.926Z,0.60
2022-10-14T02:55:51.322Z,0.63
2022-10-14T03:00:54.875Z,0.47
2022-10-14T03:05:59.796Z,0.60
2022-10-14T03:11:04.851Z,0.50
2022-10-14T03:16:09.261Z,1.00
2022-10-14T03:21:19.498Z,1.13
2022-10-14T03:26:26.846Z,0.50
2022-10-14T03:31:30.567Z,0.90
2022-10-14T03:36:51.604Z,0.77
2022-10-14T03:41:55.500Z,1.10
2022-10-14T03:47:08.498Z,1.10
2022-10-14T03:52:17.117Z,0.80
2022-10-14T03:57:21.611Z,0.60
2022-10-14T04:02:29.095Z,0.50
2022-10-14T04:07:35.987Z,1.07
2022-10-14T04:12:40.148Z,0.90
2022-10-14T04:17:48.193Z,0.60
2022-10-14T04:22:53.975Z,0.80
2022-10-14T04:27:59.011Z,0.77
2022-10-14T04:33:14.003Z,0.60
2022-10-14T04:38:19.577Z,0.70
2022-10-14T04:43:30.186Z,0.70
2022-10-14T04:48:41.996Z,0.70
2022-10-14T04:53:47.437Z,0.67
2022-10-14T04:59:17.352Z,0.97
2022-10-14T05:04:39.364Z,0.67
2022-10-14T05:09:49.653Z,0.70
2022-10-14T05:15:01.376Z,0.50
2022-10-14T05:20:14.768Z,0.63
2022-10-14T05:25:22.871Z,0.70
2022-10-14T05:30:33.668Z,1.07
2022-10-14T05:35:58.005Z,0.83
2022-10-14T05:41:04.487Z,1.10
2022-10-14T05:46:09.210Z,0.60
2022-10-14T05:51:16.552Z,0.70
2022-10-14T05:56:21.938Z,0.67
2022-10-14T06:01:25.556Z,0.70
2022-10-14T06:06:29.302Z,0.77
2022-10-14T06:11:34.880Z,1.23
2022-10-14T06:16:38.469Z,1.00
2022-10-14T06:21:44.707Z,1.00
2022-10-14T06:26:49.710Z,1.50
2022-10-14T06:31:53.342Z,1.10
2022-10-14T06:37:01.327Z,0.83
2022-10-14T06:42:20.790Z,1.07
2022-10-14T06:47:24.366Z,1.20
2022-10-14T06:52:27.920Z,1.53
2022-10-14T06:57:32.794Z,1.20
2022-10-14T07:02:38.576Z,1.10
2022-10-14T07:07:42.137Z,1.40
2022-10-14T07:12:47.051Z,2.27
2022-10-14T07:17:50.658Z,1.13
2022-10-14T07:22:56.651Z,1.17
2022-10-14T07:28:01.747Z,2.77
2022-10-14T07:33:05.432Z,1.33
2022-10-14T07:38:08.932Z,1.47
2022-10-14T07:43:13.808Z,2.60
2022-10-14T07:48:27.131Z,2.33
2022-10-14T07:53:37.441Z,1.57
2022-10-14T07:58:44.563Z,1.83
2022-10-14T08:03:49.300Z,1.50
2022-10-14T08:08:53.244Z,1.67
2022-10-14T08:14:00.132Z,1.47
2022-10-14T08:19:11.008Z,1.30
2022-10-14T08:24:17.278Z,1.40
2022-10-14T08:29:23.521Z,1.33
2022-10-14T08:34:27.893Z,2.43
2022-10-14T08:39:31.434Z,1.40
2022-10-14T08:44:43.631Z,1.40
2022-10-14T08:50:02.561Z,1.33
2022-10-14T08:55:20.427Z,1.60
2022-10-14T09:00:25.725Z,1.30
2022-10-14T09:05:29.608Z,2.23
2022-10-14T09:10:37.301Z,1.87
2022-10-14T09:15:44.984Z,2.50
2022-10-14T09:20:49.606Z,1.93
2022-10-14T09:25:57.839Z,4.13
2022-10-14T09:31:02.762Z,1.77
2022-10-14T09:36:07.060Z,2.30
2022-10-14T09:41:15.784Z,2.53
2022-10-14T09:46:20.770Z,2.30
2022-10-14T09:51:28.870Z,2.77
2022-10-14T09:56:38.968Z,3.20
2022-10-14T10:01:53.958Z,2.87
2022-10-14T10:06:57.942Z,2.53
2022-10-14T10:12:01.563Z,3.73
2022-10-14T10:17:19.273Z,3.33
2022-10-14T10:22:26.427Z,3.37
2022-10-14T10:27:35.565Z,4.20
2022-10-14T10:32:45.942Z,5.23
2022-10-14T10:38:00.514Z,3.47
2022-10-14T10:43:36.319Z,4.03
2022-10-14T10:48:48.281Z,3.40
2022-10-14T10:54:09.555Z,5.03
2022-10-14T10:59:40.769Z,4.57
2022-10-14T11:04:47.665Z,3.37
2022-10-14T11:10:27.581Z,2.87
2022-10-14T11:15:39.707Z,3.97
2022-10-14T11:21:09.503Z,4.07
2022-10-14T11:26:26.920Z,2.80
2022-10-14T11:31:39.153Z,2.60
2022-10-14T11:36:56.026Z,3.27
2022-10-14T11:42:13.618Z,3.77
2022-10-14T11:47:21.640Z,2.70
2022-10-14T11:52:30.819Z,2.70
2022-10-14T11:57:39.039Z,2.03
2022-10-14T12:02:50.527Z,2.30
2022-10-14T12:08:08.469Z,2.40
2022-10-14T12:13:15.564Z,2.23
2022-10-14T12:18:20.376Z,3.57
2022-10-14T12:23:43.780Z,1.83
2022-10-14T12:28:47.739Z,1.80
2022-10-14T12:34:18.863Z,2.70
2022-10-14T12:39:31.966Z,2.40
2022-10-14T12:44:48.079Z,3.40
2022-10-14T12:49:56.057Z,1.50
2022-10-14T12:55:04.900Z,1.63
2022-10-14T13:00:30.266Z,1.37
2022-10-14T13:05:38.268Z,1.90
2022-10-14T13:10:48.524Z,1.60
2022-10-14T13:15:52.970Z,1.80
2022-10-14T13:20:56.503Z,1.73
2022-10-14T13:26:24.010Z,2.03
2022-10-14T13:31:36.157Z,1.30
2022-10-14T13:36:49.822Z,1.40
2022-10-14T13:41:54.883Z,2.70
2022-10-14T13:46:58.473Z,1.57
2022-10-14T13:52:05.451Z,2.53
2022-10-14T13:57:48.003Z,1.60
2022-10-14T14:02:39.250Z,1.20
2022-10-14T14:13:13.143Z,1.40
2022-10-14T14:18:33.947Z,1.10
2022-10-14T14:23:51.216Z,1.47
2022-10-14T14:28:56.422Z,1.00
2022-10-14T14:34:01.221Z,1.10
2022-10-14T14:39:04.951Z,0.80
2022-10-14T14:44:25.063Z,0.90
2022-10-14T14:49:31.435Z,1.10
2022-10-14T14:54:35.477Z,0.80
2022-10-14T14:59:43.378Z,1.17
2022-10-14T15:04:48.068Z,0.70
2022-10-14T15:09:54.466Z,0.73
2022-10-14T15:15:00.574Z,1.20
2022-10-14T15:20:28.483Z,0.73
2022-10-14T15:25:32.953Z,1.40
2022-10-14T15:30:53.829Z,1.00
2022-10-14T15:35:59.829Z,1.20
2022-10-14T15:41:05.243Z,1.07
2022-10-14T15:46:31.699Z,0.60
2022-10-14T15:51:35.220Z,0.87
2022-10-14T15:56:39.761Z,0.70
2022-10-14T16:01:46.173Z,0.60
2022-10-14T16:06:50.437Z,0.70
2022-10-14T16:11:57.943Z,0.67
2022-10-14T16:17:03.118Z,0.67
2022-10-14T16:22:06.657Z,0.87
2022-10-14T16:27:11.810Z,0.60
2022-10-14T16:32:16.710Z,0.50
2022-10-14T16:37:20.535Z,0.50
2022-10-14T16:42:24.349Z,0.70
2022-10-14T16:47:29.229Z,0.50
2022-10-14T16:52:53.150Z,0.70
2022-10-14T16:57:56.698Z,0.93
2022-10-14T17:03:02.139Z,0.50
2022-10-14T17:08:06.132Z,0.50
2022-10-14T17:13:09.679Z,0.83
2022-10-14T17:18:17.934Z,0.40
2022-10-14T17:23:21.743Z,0.40
2022-10-14T17:28:25.574Z,0.40
2022-10-14T17:33:30.549Z,0.70
2022-10-14T17:38:35.714Z,0.50
2022-10-14T17:43:39.989Z,0.60
2022-10-14T17:48:45.045Z,0.50
2022-10-14T17:53:48.913Z,0.60
2022-10-14T17:58:55.753Z,1.57
2022-10-14T18:04:01.065Z,0.63
2022-10-14T18:09:07.214Z,0.43
2022-10-14T18:14:13.647Z,0.50
2022-10-14T18:19:19.544Z,0.50
2022-10-14T18:24:23.341Z,0.40
2022-10-14T18:29:27.027Z,0.50
2022-10-14T18:34:32.251Z,0.70
2022-10-14T18:39:35.905Z,0.97
2022-10-14T18:44:39.471Z,0.63
2022-10-14T18:49:44.426Z,0.63
2022-10-14T18:54:48.515Z,0.73
2022-10-14T18:59:52.141Z,0.57
2022-10-14T19:04:57.002Z,0.80
2022-10-14T19:10:00.488Z,0.73
2022-10-14T19:15:04.012Z,0.67
2022-10-14T19:20:09.464Z,1.23
2022-10-14T19:25:13.118Z,0.63
2022-10-14T19:30:16.988Z,0.70
2022-10-14T19:35:22.557Z,0.70
2022-10-14T19:40:26.145Z,0.60
2022-10-14T19:45:29.677Z,0.43
2022-10-14T19:50:34.710Z,0.60
2022-10-14T19:55:38.510Z,1.00
2022-10-14T20:00:42.017Z,0.60
2022-10-14T20:05:47.030Z,0.60
2022-10-14T20:10:50.593Z,0.70
2022-10-14T20:15:55.111Z,0.60
2022-10-14T20:21:01.945Z,1.00
2022-10-14T20:26:07.525Z,1.00
2022-10-14T20:31:12.959Z,0.50
2022-10-14T20:36:19.488Z,0.50
2022-10-14T20:41:25.190Z,0.60
2022-10-14T20:46:28.731Z,0.60
2022-10-14T20:51:33.662Z,0.63
2022-10-14T20:56:37.556Z,0.80
2022-10-14T21:01:41.550Z,0.67
2022-10-14T21:06:46.504Z,0.40
2022-10-14T21:11:50.117Z,0.53
2022-10-14T21:16:53.644Z,0.63
2022-10-14T21:21:58.823Z,0.60
2022-10-14T21:27:02.409Z,0.60
2022-10-14T21:32:06.563Z,0.70
2022-10-14T21:37:12.083Z,1.00
2022-10-14T21:42:15.668Z,0.67
2022-10-14T21:47:19.162Z,0.47
2022-10-14T21:52:24.458Z,0.40
2022-10-14T21:57:28.347Z,0.30
2022-10-14T22:02:32.278Z,0.40
2022-10-14T22:07:37.217Z,0.63
2022-10-14T22:12:40.731Z,0.30
2022-10-14T22:17:44.224Z,0.30
2022-10-14T22:22:49.099Z,0.53
2022-10-14T22:27:52.694Z,0.20
2022-10-14T22:32:56.443Z,0.60
2022-10-14T22:38:01.430Z,0.30
2022-10-14T22:43:04.957Z,0.20
2022-10-14T22:48:08.596Z,0.37
2022-10-14T22:53:13.606Z,0.93
2022-10-14T22:58:17.241Z,0.40
2022-10-14T23:03:21.249Z,0.40
2022-10-14T23:08:26.681Z,0.70
2022-10-14T23:13:30.585Z,0.53
2022-10-14T23:18:35.832Z,0.40
2022-10-14T23:23:41.278Z,0.60
2022-10-14T23:28:49.475Z,0.40
2022-10-14T23:33:53.336Z,0.40
2022-10-14T23:38:59.674Z,1.40
2022-10-14T23:44:03.257Z,0.40
2022-10-14T23:49:14.243Z,0.50
2022-10-14T23:54:26.546Z,0.50
2022-10-14T23:59:30.091Z,0.50
